createdAt,value
2022-07-26T00:03:01.025Z,68.39
2022-07-26T00:07:05.048Z,68.11
2022-07-26T00:11:07.929Z,68.35
2022-07-26T00:15:11.896Z,68.00
2022-07-26T00:19:14.648Z,68.66
2022-07-26T00:23:17.001Z,68.65
2022-07-26T00:27:18.849Z,69.19
2022-07-26T00:31:21.805Z,69.14
2022-07-26T00:35:25.726Z,68.97
2022-07-26T00:39:30.074Z,69.10
2022-07-26T00:43:32.567Z,68.42
2022-07-26T00:47:35.920Z,68.44
2022-07-26T00:51:37.590Z,68.62
2022-07-26T00:55:41.287Z,68.81
2022-07-26T00:59:45.488Z,69.27
2022-07-26T01:03:53.185Z,69.55
2022-07-26T01:07:55.608Z,69.84
2022-07-26T01:11:57.819Z,69.46
2022-07-26T01:16:00.776Z,69.24
2022-07-26T01:20:02.569Z,69.83
2022-07-26T01:24:04.732Z,70.08
2022-07-26T01:28:08.878Z,70.13
2022-07-26T01:32:10.337Z,69.92
2022-07-26T01:36:12.723Z,69.79
2022-07-26T01:40:14.402Z,69.96
2022-07-26T01:44:16.176Z,70.20
2022-07-26T01:48:22.730Z,70.23
2022-07-26T01:52:46.461Z,70.40
2022-07-26T01:56:48.337Z,70.95
2022-07-26T02:00:49.843Z,70.99
2022-07-26T02:04:59.221Z,71.24
2022-07-26T02:09:00.695Z,71.22
2022-07-26T02:13:03.465Z,71.70
2022-07-26T02:17:11.313Z,71.67
2022-07-26T02:21:12.968Z,71.58
2022-07-26T02:25:17.541Z,71.69
2022-07-26T02:29:19.119Z,71.55
2022-07-26T02:33:21.041Z,71.26
2022-07-26T02:37:23.864Z,71.50
2022-07-26T02:41:25.921Z,72.00
2022-07-26T02:45:28.536Z,71.14
2022-07-26T02:49:30.593Z,70.74
2022-07-26T02:53:32.990Z,70.51
2022-07-26T02:57:46.213Z,70.34
2022-07-26T03:01:48.324Z,70.07
2022-07-26T03:05:50.559Z,69.26
2022-07-26T03:09:52.132Z,68.95
2022-07-26T03:13:54.489Z,69.07
2022-07-26T03:17:57.534Z,69.26
2022-07-26T03:22:00.165Z,69.00
2022-07-26T03:26:03.043Z,68.71
2022-07-26T03:30:05.779Z,69.29
2022-07-26T03:34:08.447Z,69.33
2022-07-26T03:38:10.155Z,69.90
2022-07-26T03:42:11.630Z,70.60
2022-07-26T03:46:13.269Z,70.90
2022-07-26T03:50:14.811Z,71.66
2022-07-26T03:54:17.881Z,71.54
2022-07-26T03:58:19.478Z,72.37
2022-07-26T04:02:20.962Z,72.45
2022-07-26T04:06:23.239Z,72.51
2022-07-26T04:10:24.987Z,72.92
2022-07-26T04:14:26.670Z,73.36
2022-07-26T04:18:28.260Z,73.30
2022-07-26T04:22:29.796Z,73.30
2022-07-26T04:26:31.251Z,73.70
2022-07-26T04:30:32.824Z,73.70
2022-07-26T04:34:34.329Z,73.58
2022-07-26T04:38:35.944Z,73.29
2022-07-26T04:42:37.723Z,72.90
2022-07-26T04:46:39.303Z,73.10
2022-07-26T04:50:46.592Z,72.71
2022-07-26T04:54:48.003Z,72.44
2022-07-26T04:58:49.581Z,72.20
2022-07-26T05:02:53.659Z,71.46
2022-07-26T05:07:02.361Z,71.35
2022-07-26T05:11:04.387Z,70.57
2022-07-26T05:15:07.074Z,70.26
2022-07-26T05:19:16.104Z,69.38
2022-07-26T05:23:17.691Z,68.69
2022-07-26T05:27:20.247Z,68.54
2022-07-26T05:31:40.570Z,68.53
2022-07-26T05:35:46.319Z,68.78
2022-07-26T05:39:48.349Z,68.08
2022-07-26T05:43:50.099Z,67.48
2022-07-26T05:47:55.238Z,66.72
2022-07-26T05:52:02.566Z,65.62
2022-07-26T05:56:05.041Z,64.43
2022-07-26T06:00:08.164Z,63.14
2022-07-26T06:04:10.814Z,60.84
2022-07-26T06:08:12.615Z,59.90
2022-07-26T06:12:15.375Z,57.72
2022-07-26T06:16:18.310Z,56.46
2022-07-26T06:20:26.982Z,54.63
2022-07-26T06:24:33.220Z,53.13
2022-07-26T06:28:38.636Z,51.58
2022-07-26T06:32:44.275Z,50.65
2022-07-26T06:36:47.157Z,49.74
2022-07-26T06:40:50.182Z,48.45
2022-07-26T06:44:51.699Z,48.61
2022-07-26T06:48:56.911Z,49.29
2022-07-26T06:53:00.706Z,48.41
2022-07-26T06:57:06.990Z,47.83
2022-07-26T07:01:08.830Z,47.46
2022-07-26T07:05:14.613Z,48.10
2022-07-26T07:09:16.293Z,47.05
2022-07-26T07:13:18.219Z,47.52
2022-07-26T07:17:20.569Z,47.44
2022-07-26T07:21:22.302Z,47.43
2022-07-26T07:25:30.268Z,48.93
2022-07-26T07:29:32.570Z,49.45
2022-07-26T07:33:43.866Z,49.93
2022-07-26T07:37:55.115Z,49.38
2022-07-26T07:41:57.539Z,48.75
2022-07-26T07:45:58.944Z,48.17
2022-07-26T07:50:00.503Z,47.44
2022-07-26T07:54:05.447Z,47.08
2022-07-26T07:58:07.595Z,46.23
2022-07-26T08:02:09.661Z,45.65
2022-07-26T08:06:11.027Z,45.45
2022-07-26T08:10:12.865Z,45.49
2022-07-26T08:14:16.073Z,46.00
2022-07-26T08:18:22.730Z,45.80
2022-07-26T08:22:25.558Z,46.18
2022-07-26T08:26:27.961Z,46.59
2022-07-26T08:30:32.209Z,46.58
2022-07-26T08:34:34.362Z,45.91
2022-07-26T08:38:35.793Z,44.99
2022-07-26T08:42:37.385Z,44.00
2022-07-26T08:46:39.839Z,43.14
2022-07-26T08:50:41.862Z,44.01
2022-07-26T08:54:52.322Z,43.98
2022-07-26T08:58:53.853Z,43.80
2022-07-26T09:02:56.315Z,43.64
2022-07-26T09:07:02.587Z,42.88
2022-07-26T09:11:23.999Z,41.79
2022-07-26T09:15:27.620Z,41.57
2022-07-26T09:19:29.104Z,40.77
2022-07-26T09:23:41.327Z,40.17
2022-07-26T09:27:42.808Z,40.61
2022-07-26T09:31:44.702Z,40.61
2022-07-26T09:36:04.894Z,41.75
2022-07-26T09:40:12.505Z,42.03
2022-07-26T09:44:26.293Z,43.94
2022-07-26T09:48:45.927Z,43.05
2022-07-26T09:53:11.495Z,41.34
2022-07-26T09:57:16.560Z,38.57
2022-07-26T10:01:18.055Z,40.20
2022-07-26T10:05:21.788Z,39.34
2022-07-26T10:09:23.846Z,38.76
2022-07-26T10:13:27.543Z,39.90
2022-07-26T10:17:31.315Z,38.76
2022-07-26T10:21:35.233Z,38.80
2022-07-26T10:25:39.794Z,38.73
2022-07-26T10:29:41.278Z,38.24
2022-07-26T10:33:46.819Z,38.14
2022-07-26T10:37:59.390Z,38.40
2022-07-26T10:42:04.412Z,39.63
2022-07-26T10:46:18.333Z,39.30
2022-07-26T10:50:33.042Z,40.03
2022-07-26T10:54:56.687Z,41.00
2022-07-26T10:58:59.361Z,41.60
2022-07-26T11:03:07.915Z,41.11
2022-07-26T11:07:09.434Z,41.57
2022-07-26T11:11:21.960Z,42.24
2022-07-26T11:15:24.274Z,42.03
2022-07-26T11:19:29.009Z,41.92
2022-07-26T11:23:39.070Z,42.37
2022-07-26T11:27:58.971Z,43.03
2022-07-26T11:32:16.449Z,41.22
2022-07-26T11:36:31.762Z,41.60
2022-07-26T11:40:47.743Z,42.09
2022-07-26T11:44:50.160Z,42.01
2022-07-26T11:48:53.350Z,40.04
2022-07-26T11:52:55.830Z,40.44
2022-07-26T11:56:59.562Z,40.01
2022-07-26T12:01:01.172Z,39.40
2022-07-26T12:05:17.859Z,39.70
2022-07-26T12:09:40.629Z,40.52
2022-07-26T12:14:00.287Z,39.37
2022-07-26T12:18:01.895Z,37.83
2022-07-26T12:22:14.434Z,38.21
2022-07-26T12:26:25.073Z,37.96
2022-07-26T12:30:30.819Z,38.77
2022-07-26T12:34:33.710Z,38.45
2022-07-26T12:38:40.226Z,39.03
2022-07-26T12:43:02.207Z,36.68
2022-07-26T12:47:05.698Z,38.46
2022-07-26T12:51:07.489Z,38.98
2022-07-26T12:55:13.066Z,38.99
2022-07-26T12:59:17.611Z,38.26
2022-07-26T13:03:19.454Z,39.69
2022-07-26T13:07:20.974Z,39.80
2022-07-26T13:11:22.311Z,40.27
2022-07-26T13:15:23.850Z,40.85
2022-07-26T13:19:39.575Z,40.82
2022-07-26T13:23:41.002Z,40.09
2022-07-26T13:27:44.728Z,40.94
2022-07-26T13:31:46.909Z,40.74
2022-07-26T13:35:50.229Z,40.81
2022-07-26T13:39:51.978Z,41.54
2022-07-26T13:43:54.101Z,40.88
2022-07-26T13:47:55.561Z,41.72
2022-07-26T13:51:57.669Z,42.29
2022-07-26T13:55:59.213Z,42.83
2022-07-26T14:00:00.890Z,42.57
2022-07-26T14:04:03.097Z,42.96
2022-07-26T14:08:05.532Z,42.52
2022-07-26T14:12:07.231Z,40.77
2022-07-26T14:16:10.563Z,40.79
2022-07-26T14:20:12.305Z,40.07
2022-07-26T14:24:14.274Z,39.44
2022-07-26T14:28:18.075Z,39.15
2022-07-26T14:32:21.980Z,38.93
2022-07-26T14:36:24.050Z,38.70
2022-07-26T14:40:25.473Z,38.99
2022-07-26T14:44:27.330Z,38.83
2022-07-26T14:48:53.017Z,38.24
2022-07-26T14:52:50.462Z,38.91
2022-07-26T14:56:51.975Z,38.78
2022-07-26T15:00:53.699Z,39.33
2022-07-26T15:04:55.379Z,38.87
2022-07-26T15:08:56.943Z,37.85
2022-07-26T15:13:00.306Z,38.06
2022-07-26T15:17:01.800Z,38.69
2022-07-26T15:21:03.433Z,38.42
2022-07-26T15:25:05.005Z,37.60
2022-07-26T15:29:06.477Z,38.48
2022-07-26T15:33:08.076Z,37.94
2022-07-26T15:37:09.520Z,38.44
2022-07-26T15:41:10.934Z,38.31
2022-07-26T15:45:13.262Z,38.95
2022-07-26T15:49:16.759Z,39.33
2022-07-26T15:53:18.442Z,39.01
2022-07-26T15:57:20.038Z,38.14
2022-07-26T16:01:21.646Z,38.46
2022-07-26T16:05:23.109Z,38.64
2022-07-26T16:09:24.670Z,37.92
2022-07-26T16:13:26.065Z,36.23
2022-07-26T16:17:27.493Z,36.19
2022-07-26T16:21:28.926Z,35.90
2022-07-26T16:25:30.389Z,36.45
2022-07-26T16:29:32.015Z,37.02
2022-07-26T16:33:33.366Z,37.80
2022-07-26T16:37:34.851Z,37.12
2022-07-26T16:41:36.437Z,37.67
2022-07-26T16:45:37.912Z,37.82
2022-07-26T16:49:39.636Z,37.80
2022-07-26T16:53:41.341Z,37.75
2022-07-26T16:57:43.724Z,37.80
2022-07-26T17:01:45.316Z,37.82
2022-07-26T17:05:47.241Z,39.86
2022-07-26T17:09:48.765Z,38.73
2022-07-26T17:13:50.383Z,39.50
2022-07-26T17:17:51.867Z,39.59
2022-07-26T17:21:53.735Z,40.45
2022-07-26T17:25:55.211Z,40.32
2022-07-26T17:29:57.007Z,39.17
2022-07-26T17:33:58.589Z,40.46
2022-07-26T17:38:00.096Z,40.20
2022-07-26T17:42:02.082Z,41.24
2022-07-26T17:46:04.051Z,38.67
2022-07-26T17:54:29.472Z,38.58
2022-07-26T17:58:31.182Z,41.67
2022-07-26T18:02:32.593Z,40.67
2022-07-26T18:06:34.242Z,39.45
2022-07-26T18:10:36.906Z,38.87
2022-07-26T18:14:38.394Z,40.48
2022-07-26T18:18:40.435Z,40.49
2022-07-26T18:22:42.000Z,41.44
2022-07-26T18:26:47.375Z,41.33
2022-07-26T18:30:48.933Z,41.40
2022-07-26T18:34:51.508Z,41.18
2022-07-26T18:38:53.950Z,41.97
2022-07-26T18:42:55.879Z,41.59
2022-07-26T18:46:58.548Z,41.91
2022-07-26T18:51:00.087Z,42.50
2022-07-26T18:55:06.942Z,43.01
2022-07-26T18:59:08.959Z,43.25
2022-07-26T19:03:10.778Z,44.11
2022-07-26T19:07:12.235Z,45.49
2022-07-26T19:11:14.854Z,47.05
2022-07-26T19:15:16.835Z,48.11
2022-07-26T19:19:18.234Z,48.71
2022-07-26T19:23:19.811Z,50.17
2022-07-26T19:27:21.498Z,50.87
2022-07-26T19:31:23.219Z,50.65
2022-07-26T19:35:24.757Z,51.87
2022-07-26T19:39:26.528Z,52.59
2022-07-26T19:43:28.589Z,52.64
2022-07-26T19:47:30.191Z,53.28
2022-07-26T19:51:31.917Z,54.02
2022-07-26T19:55:33.596Z,54.18
2022-07-26T19:59:35.263Z,54.54
2022-07-26T20:03:36.858Z,54.72
2022-07-26T20:07:38.996Z,56.28
2022-07-26T20:11:40.398Z,55.96
2022-07-26T20:15:42.030Z,56.71
2022-07-26T20:19:43.728Z,56.80
2022-07-26T20:23:45.815Z,57.34
2022-07-26T20:27:48.363Z,59.10
2022-07-26T20:31:49.810Z,58.54
2022-07-26T20:35:55.129Z,58.37
2022-07-26T20:39:56.971Z,58.15
2022-07-26T20:43:58.395Z,58.66
2022-07-26T20:48:00.535Z,59.38
2022-07-26T20:52:04.375Z,60.82
2022-07-26T20:56:05.818Z,60.70
2022-07-26T21:00:10.833Z,59.13
2022-07-26T21:04:12.567Z,59.83
2022-07-26T21:08:14.356Z,60.15
2022-07-26T21:12:16.000Z,60.44
2022-07-26T21:16:17.542Z,60.81
2022-07-26T21:20:19.724Z,60.63
2022-07-26T21:24:21.810Z,61.15
2022-07-26T21:28:23.528Z,60.75
2022-07-26T21:32:29.719Z,60.74
2022-07-26T21:36:33.359Z,61.48
2022-07-26T21:40:35.857Z,61.56
2022-07-26T21:44:37.396Z,61.98
2022-07-26T21:48:39.334Z,61.18
2022-07-26T21:52:40.948Z,61.64
2022-07-26T21:56:42.452Z,61.98
2022-07-26T22:00:44.031Z,62.12
2022-07-26T22:04:45.712Z,62.15
2022-07-26T22:08:47.319Z,62.47
2022-07-26T22:12:48.786Z,62.97
2022-07-26T22:16:50.584Z,63.26
2022-07-26T22:20:52.523Z,62.85
2022-07-26T22:24:54.051Z,63.26
2022-07-26T22:28:55.583Z,63.08
2022-07-26T22:32:58.708Z,63.24
2022-07-26T22:37:00.156Z,63.88
2022-07-26T22:41:01.801Z,63.88
2022-07-26T22:45:03.521Z,64.97
2022-07-26T22:49:11.949Z,64.87
2022-07-26T22:53:16.703Z,63.62
2022-07-26T22:57:18.105Z,62.74
2022-07-26T23:01:19.614Z,61.83
2022-07-26T23:05:21.597Z,61.38
2022-07-26T23:09:27.046Z,60.91
2022-07-26T23:13:28.838Z,60.70
2022-07-26T23:17:30.279Z,61.10
2022-07-26T23:21:32.054Z,61.83
2022-07-26T23:25:33.859Z,61.51
2022-07-26T23:29:35.469Z,62.03
2022-07-26T23:33:53.282Z,61.68
2022-07-26T23:37:56.033Z,61.85
2022-07-26T23:41:58.292Z,62.24
2022-07-26T23:45:59.666Z,62.57
2022-07-26T23:50:01.136Z,62.81
2022-07-26T23:54:02.680Z,63.03
2022-07-26T23:58:04.880Z,63.49
